Terminal Aerodrome Forecast
Issued by NWS

Home | Current Version | Previous Version | Text Only | Print | Product List | Glossary On
Versions: 1 2 3 4 5 6 7 8 9 10 11 12 13 14 15 16 17 18 19 20 21 22 23 24 25 26 27 28 29 30 31 32 33 34 35 36 37
000
FTUS43 KDLH 081614 AAB
TAFHIB
TAF AMD
KHIB 081614Z 0816/0912 32015G24KT 6SM -SN BLSN SCT025 BKN045
      TEMPO 0816/0818 3SM -SN BLSN BKN025
     FM081900 33014G23KT 6SM -SN BLSN SCT015 BKN030
     FM090000 33012G20KT P6SM BKN030
     FM090800 34012KT P6SM SCT030=

USA.gov is the U.S. government's official web portal to all federal, state and local government web resources and services.